< < Back
Terminal Aerodrome Forecast


Current Version              Previous Versions:   1  2  3  4  5  6  7  8  9  

Terminal Aerodrome Forecast

814
FTUS42 KGSP 010500
TAFAND
TAF
KAND 010540Z 0106/0206 04007KT 4SM RA BR FEW004 BKN035
     FM010900 04005KT 4SM -SHRA BR OVC011
     FM011100 05005KT 2SM -SHRA BR OVC007
     FM011400 05005KT 6SM -SHRA OVC030
     FM011900 12005KT P6SM -SHRA OVC040 PROB30 0119/0124 4SM TSRA
      OVC016CB
     FM020300 07005KT P6SM BKN019=



Latest METAR

774
SAUS70 KWBC 011300 RRX
MTRAND
METAR KAND 011256Z AUTO 04007KT 10SM -RA FEW010 SCT065 BKN120 18/18
A3011 RMK AO2 SLP188 P0002 T01830178


USA.gov is the U.S. government's official web portal to all federal, state and local government web resources and services.